createdAt,value
2018-07-20T00:01:32.286Z,15.76
2018-07-20T00:04:30.022Z,15.81
2018-07-20T00:07:28.025Z,15.61
2018-07-20T00:10:26.208Z,15.60
2018-07-20T00:13:24.182Z,15.53
2018-07-20T00:16:22.197Z,15.60
2018-07-20T00:19:20.319Z,15.64
2018-07-20T00:22:18.166Z,15.52
2018-07-20T00:25:16.166Z,15.29
2018-07-20T00:28:14.041Z,15.45
2018-07-20T00:31:12.255Z,15.50
2018-07-20T00:34:10.289Z,15.44
2018-07-20T00:37:08.290Z,15.29
2018-07-20T00:40:06.350Z,15.23
2018-07-20T00:43:04.402Z,15.15
2018-07-20T00:46:02.210Z,15.02
2018-07-20T00:49:00.214Z,15.08
2018-07-20T00:51:58.482Z,14.92
2018-07-20T00:54:56.326Z,15.08
2018-07-20T00:57:54.215Z,15.09
2018-07-20T01:00:53.478Z,15.09
2018-07-20T01:03:55.820Z,15.03
2018-07-20T01:06:53.490Z,14.74
2018-07-20T01:09:56.403Z,14.76
2018-07-20T01:12:55.560Z,14.85
2018-07-20T01:16:10.446Z,14.86
2018-07-20T01:19:17.734Z,14.90
2018-07-20T01:22:24.983Z,14.79
2018-07-20T01:25:23.995Z,14.78
2018-07-20T01:28:22.715Z,14.83
2018-07-20T01:31:20.206Z,14.77
2018-07-20T01:34:27.167Z,14.81
2018-07-20T01:37:24.682Z,14.98
2018-07-20T01:40:22.778Z,15.02
2018-07-20T01:43:19.950Z,15.01
2018-07-20T01:46:18.046Z,15.05
2018-07-20T01:49:16.089Z,15.02
2018-07-20T01:52:13.344Z,14.81
2018-07-20T01:55:11.310Z,14.58
2018-07-20T01:58:12.099Z,14.51
2018-07-20T02:01:09.630Z,14.55
2018-07-20T02:04:07.482Z,14.72
2018-07-20T02:07:05.442Z,14.84
2018-07-20T02:10:03.486Z,14.85
2018-07-20T02:13:01.510Z,14.93
2018-07-20T02:15:58.574Z,14.87
2018-07-20T02:18:56.058Z,14.90
2018-07-20T02:21:53.970Z,14.75
2018-07-20T02:24:52.065Z,14.90
2018-07-20T02:27:50.134Z,14.66
2018-07-20T02:30:48.226Z,14.56
2018-07-20T02:33:46.202Z,14.58
2018-07-20T02:36:43.728Z,14.53
2018-07-20T02:39:41.656Z,14.65
2018-07-20T02:42:39.815Z,14.75
2018-07-20T02:45:36.893Z,14.78
2018-07-20T02:48:34.881Z,14.72
2018-07-20T02:51:32.868Z,14.70
2018-07-20T02:54:30.986Z,14.56
2018-07-20T02:57:29.083Z,14.56
2018-07-20T03:00:27.042Z,14.61
2018-07-20T03:03:24.786Z,14.51
2018-07-20T03:06:21.978Z,14.51
2018-07-20T03:09:22.074Z,14.47
2018-07-20T03:12:20.295Z,14.51
2018-07-20T03:15:18.538Z,14.52
2018-07-20T03:18:16.432Z,14.34
2018-07-20T03:21:14.459Z,14.46
2018-07-20T03:24:12.519Z,14.53
2018-07-20T03:27:10.741Z,14.55
2018-07-20T03:30:07.951Z,14.56
2018-07-20T03:33:05.283Z,14.50
2018-07-20T03:36:03.254Z,14.59
2018-07-20T03:39:00.600Z,14.61
2018-07-20T03:41:58.666Z,14.63
2018-07-20T03:44:56.871Z,14.54
2018-07-20T03:47:54.733Z,14.50
2018-07-20T03:50:52.603Z,14.71
2018-07-20T03:53:50.479Z,14.85
2018-07-20T03:56:47.886Z,14.84
2018-07-20T03:59:45.853Z,14.83
2018-07-20T04:02:43.685Z,14.74
2018-07-20T04:05:41.570Z,14.72
2018-07-20T04:08:39.527Z,14.88
2018-07-20T04:11:37.604Z,15.02
2018-07-20T04:14:35.777Z,15.13
2018-07-20T04:17:37.846Z,14.92
2018-07-20T04:20:34.813Z,15.03
2018-07-20T04:23:31.806Z,15.09
2018-07-20T04:26:29.522Z,15.23
2018-07-20T04:29:27.124Z,15.42
2018-07-20T04:32:25.291Z,15.56
2018-07-20T04:35:23.337Z,15.73
2018-07-20T04:38:21.476Z,15.76
2018-07-20T04:41:18.890Z,15.85
2018-07-20T04:44:17.043Z,15.89
2018-07-20T04:47:14.554Z,16.00
2018-07-20T04:50:12.562Z,16.06
2018-07-20T04:53:10.572Z,16.38
2018-07-20T04:56:08.558Z,16.72
2018-07-20T04:59:06.697Z,16.90
2018-07-20T05:02:03.684Z,17.00
2018-07-20T05:05:01.570Z,17.24
2018-07-20T05:07:59.381Z,17.52
2018-07-20T05:10:56.642Z,17.63
2018-07-20T05:13:54.509Z,18.14
2018-07-20T05:16:52.724Z,17.96
2018-07-20T05:19:51.719Z,18.27
2018-07-20T05:22:49.606Z,18.28
2018-07-20T05:25:47.462Z,18.21
2018-07-20T05:28:44.964Z,18.23
2018-07-20T05:31:42.189Z,18.32
2018-07-20T05:34:39.283Z,18.67
2018-07-20T05:37:36.314Z,18.87
2018-07-20T05:40:34.490Z,18.90
2018-07-20T05:43:32.406Z,18.80
2018-07-20T05:46:29.593Z,18.96
2018-07-20T05:49:27.781Z,19.11
2018-07-20T05:52:25.116Z,19.24
2018-07-20T05:55:23.119Z,19.38
2018-07-20T05:58:21.402Z,19.44
2018-07-20T06:01:19.266Z,19.41
2018-07-20T06:04:17.499Z,19.66
2018-07-20T06:07:15.563Z,20.12
2018-07-20T06:10:13.479Z,20.13
2018-07-20T06:13:11.671Z,20.69
2018-07-20T06:16:09.646Z,21.27
2018-07-20T06:19:07.726Z,20.78
2018-07-20T06:22:05.977Z,20.97
2018-07-20T06:25:03.885Z,21.10
2018-07-20T06:28:01.981Z,21.44
2018-07-20T06:30:59.903Z,21.46
2018-07-20T06:33:57.986Z,21.60
2018-07-20T06:36:55.673Z,21.46
2018-07-20T06:39:53.571Z,21.55
2018-07-20T06:42:50.848Z,21.17
2018-07-20T06:45:48.860Z,21.14
2018-07-20T06:48:46.493Z,21.46
2018-07-20T06:51:44.380Z,21.71
2018-07-20T06:54:42.226Z,21.75
2018-07-20T06:57:40.191Z,21.77
2018-07-20T07:00:38.071Z,21.69
2018-07-20T07:03:35.189Z,21.85
2018-07-20T07:06:32.257Z,22.17
2018-07-20T07:09:30.463Z,22.77
2018-07-20T07:12:28.473Z,22.79
2018-07-20T07:15:26.466Z,22.70
2018-07-20T07:18:24.357Z,23.07
2018-07-20T07:21:22.570Z,23.06
2018-07-20T07:24:20.514Z,22.97
2018-07-20T07:27:18.275Z,22.86
2018-07-20T07:30:15.578Z,23.06
2018-07-20T07:33:13.774Z,23.67
2018-07-20T07:36:11.787Z,24.27
2018-07-20T07:39:09.980Z,24.74
2018-07-20T07:42:08.089Z,25.43
2018-07-20T07:45:06.014Z,27.57
2018-07-20T07:48:04.171Z,28.27
2018-07-20T07:51:02.061Z,28.64
2018-07-20T07:53:59.907Z,29.15
2018-07-20T07:56:57.407Z,28.83
2018-07-20T07:59:55.421Z,29.65
2018-07-20T08:02:53.308Z,29.05
2018-07-20T08:05:51.351Z,29.21
2018-07-20T08:08:48.674Z,28.85
2018-07-20T08:11:47.698Z,29.55
2018-07-20T08:14:45.642Z,29.52
2018-07-20T08:17:42.847Z,29.17
2018-07-20T08:20:40.142Z,30.44
2018-07-20T08:23:37.540Z,31.58
2018-07-20T08:26:34.886Z,32.13
2018-07-20T08:29:32.965Z,33.02
2018-07-20T08:32:31.095Z,33.27
2018-07-20T08:35:28.675Z,33.69
2018-07-20T08:38:25.837Z,33.70
2018-07-20T08:41:23.797Z,34.19
2018-07-20T08:44:21.095Z,33.69
2018-07-20T08:47:19.309Z,34.47
2018-07-20T08:50:17.427Z,33.49
2018-07-20T08:53:15.274Z,33.97
2018-07-20T08:56:13.298Z,34.39
2018-07-20T08:59:11.539Z,33.67
2018-07-20T09:02:09.468Z,33.97
2018-07-20T09:05:07.507Z,33.67
2018-07-20T09:08:05.534Z,33.99
2018-07-20T09:11:02.847Z,33.93
2018-07-20T09:14:00.998Z,34.46
2018-07-20T09:16:57.987Z,33.68
2018-07-20T09:19:56.338Z,33.27
2018-07-20T09:22:54.027Z,33.70
2018-07-20T09:25:51.898Z,33.70
2018-07-20T09:28:49.907Z,32.75
2018-07-20T09:31:47.055Z,33.07
2018-07-20T09:34:45.332Z,33.06
2018-07-20T09:37:43.335Z,33.43
2018-07-20T09:40:41.389Z,33.95
2018-07-20T09:43:38.557Z,34.93
2018-07-20T09:46:36.586Z,34.68
2018-07-20T09:49:34.279Z,33.50
2018-07-20T09:52:31.712Z,33.54
2018-07-20T09:55:29.729Z,34.66
2018-07-20T09:58:27.601Z,33.94
2018-07-20T10:01:25.335Z,33.52
2018-07-20T10:04:23.598Z,34.31
2018-07-20T10:07:21.588Z,33.66
2018-07-20T10:10:19.695Z,33.18
2018-07-20T10:13:17.657Z,33.50
2018-07-20T10:16:15.735Z,32.76
2018-07-20T10:19:13.046Z,34.67
2018-07-20T10:22:10.939Z,35.12
2018-07-20T10:25:08.929Z,33.30
2018-07-20T10:28:06.812Z,33.49
2018-07-20T10:31:04.994Z,33.54
2018-07-20T10:34:02.435Z,33.64
2018-07-20T10:37:00.332Z,34.67
2018-07-20T10:39:57.806Z,33.72
2018-07-20T10:42:55.958Z,33.74
2018-07-20T10:45:53.102Z,34.67
2018-07-20T10:48:51.278Z,33.33
2018-07-20T10:51:48.637Z,32.65
2018-07-20T10:54:46.725Z,31.95
2018-07-20T10:57:44.598Z,31.52
2018-07-20T11:00:42.881Z,30.63
2018-07-20T11:03:40.127Z,30.96
2018-07-20T11:06:38.160Z,31.79
2018-07-20T11:09:35.259Z,31.05
2018-07-20T11:12:33.451Z,31.56
2018-07-20T11:15:31.407Z,32.38
2018-07-20T11:18:29.621Z,32.11
2018-07-20T11:21:27.666Z,30.30
2018-07-20T11:24:25.879Z,29.93
2018-07-20T11:27:23.828Z,30.78
2018-07-20T11:30:21.939Z,30.88
2018-07-20T11:33:20.096Z,30.72
2018-07-20T11:36:18.395Z,31.52
2018-07-20T11:39:16.606Z,31.54
2018-07-20T11:42:14.695Z,30.80
2018-07-20T11:45:13.911Z,30.38
2018-07-20T11:48:11.681Z,30.44
2018-07-20T11:51:09.669Z,30.83
2018-07-20T11:54:06.822Z,31.00
2018-07-20T11:57:04.680Z,30.99
2018-07-20T12:00:02.692Z,30.59
2018-07-20T12:03:00.828Z,30.11
2018-07-20T12:05:58.817Z,30.26
2018-07-20T12:08:55.970Z,30.39
2018-07-20T12:11:54.004Z,30.56
2018-07-20T12:14:51.342Z,29.90
2018-07-20T12:17:49.288Z,29.39
2018-07-20T12:20:47.452Z,29.40
2018-07-20T12:23:45.564Z,29.56
2018-07-20T12:26:43.476Z,29.77
2018-07-20T12:29:41.512Z,30.13
2018-07-20T12:32:39.669Z,30.30
2018-07-20T12:35:36.692Z,30.24
2018-07-20T12:38:34.697Z,30.26
2018-07-20T12:41:32.549Z,29.98
2018-07-20T12:44:30.414Z,29.84
2018-07-20T12:47:28.298Z,29.90
2018-07-20T12:50:26.542Z,30.29
2018-07-20T12:53:25.629Z,30.84
2018-07-20T12:56:23.498Z,31.14
2018-07-20T12:59:21.524Z,31.31
2018-07-20T13:02:19.602Z,30.96
2018-07-20T13:05:17.642Z,30.95
2018-07-20T13:08:15.763Z,30.81
2018-07-20T13:11:14.027Z,30.94
2018-07-20T13:14:12.023Z,31.13
2018-07-20T13:17:10.183Z,31.48
2018-07-20T13:20:08.135Z,31.31
2018-07-20T13:23:06.467Z,31.15
2018-07-20T13:26:04.947Z,31.21
2018-07-20T13:29:02.475Z,31.27
2018-07-20T13:32:00.386Z,31.22
2018-07-20T13:34:58.645Z,30.57
2018-07-20T13:37:56.114Z,30.51
2018-07-20T13:41:02.914Z,30.71
2018-07-20T13:44:00.863Z,30.94
2018-07-20T13:46:59.142Z,30.82
2018-07-20T13:49:57.333Z,31.06
2018-07-20T13:52:55.147Z,30.73
2018-07-20T13:55:53.167Z,30.36
2018-07-20T13:58:51.214Z,30.16
2018-07-20T14:01:49.332Z,30.02
2018-07-20T14:04:47.410Z,29.60
2018-07-20T14:07:45.371Z,29.94
2018-07-20T14:10:43.368Z,30.08
2018-07-20T14:13:41.316Z,30.10
2018-07-20T14:16:39.494Z,29.68
2018-07-20T14:19:37.254Z,29.79
2018-07-20T14:22:35.150Z,29.90
2018-07-20T14:25:33.011Z,29.98
2018-07-20T14:28:31.267Z,30.34
2018-07-20T14:31:28.571Z,30.48
2018-07-20T14:34:26.667Z,31.00
2018-07-20T14:37:24.695Z,30.91
2018-07-20T14:40:21.678Z,30.89
2018-07-20T14:43:19.807Z,31.09
2018-07-20T14:46:17.974Z,31.19
2018-07-20T14:49:15.902Z,31.07
2018-07-20T14:52:13.986Z,31.08
2018-07-20T14:55:11.542Z,31.16
2018-07-20T14:58:09.622Z,30.91
2018-07-20T15:01:07.599Z,31.06
2018-07-20T15:04:05.265Z,31.08
2018-07-20T15:07:03.170Z,30.65
2018-07-20T15:10:01.152Z,30.18
2018-07-20T15:12:59.252Z,30.00
2018-07-20T15:15:57.180Z,29.91
2018-07-20T15:18:55.267Z,29.81
2018-07-20T15:21:53.221Z,30.25
2018-07-20T15:24:51.095Z,30.25
2018-07-20T15:27:49.111Z,30.27
2018-07-20T15:30:47.130Z,30.32
2018-07-20T15:33:45.050Z,30.19
2018-07-20T15:36:42.075Z,29.79
2018-07-20T15:39:39.958Z,29.67
2018-07-20T15:42:37.998Z,29.49
2018-07-20T15:45:36.082Z,29.49
2018-07-20T15:48:34.047Z,29.37
2018-07-20T15:53:34.771Z,29.32
2018-07-20T15:54:30.036Z,29.43
2018-07-20T15:57:27.806Z,29.57
2018-07-20T16:00:25.735Z,29.84
2018-07-20T16:03:23.559Z,30.24
2018-07-20T16:06:21.404Z,30.62
2018-07-20T16:09:21.233Z,30.56
2018-07-20T16:12:19.112Z,30.56
2018-07-20T16:15:17.109Z,30.57
2018-07-20T16:18:15.051Z,30.79
2018-07-20T16:21:13.214Z,31.00
2018-07-20T16:24:11.188Z,31.06
2018-07-20T16:27:09.079Z,30.92
2018-07-20T16:30:07.164Z,30.70
2018-07-20T16:33:05.125Z,30.41
2018-07-20T16:36:03.243Z,30.04
2018-07-20T16:39:01.177Z,29.72
2018-07-20T16:41:58.983Z,29.60
2018-07-20T16:44:57.898Z,29.39
2018-07-20T16:47:55.894Z,29.24
2018-07-20T16:50:53.647Z,29.10
2018-07-20T16:53:51.851Z,28.93
2018-07-20T16:56:50.101Z,28.89
2018-07-20T16:59:48.222Z,29.08
2018-07-20T17:02:46.278Z,29.11
2018-07-20T17:05:44.022Z,29.23
2018-07-20T17:08:42.226Z,29.32
2018-07-20T17:11:40.285Z,29.35
2018-07-20T17:14:38.559Z,29.41
2018-07-20T17:17:36.424Z,29.33
2018-07-20T17:20:34.118Z,29.04
2018-07-20T17:23:31.851Z,28.73
2018-07-20T17:26:29.779Z,28.84
2018-07-20T17:29:27.718Z,28.88
2018-07-20T17:32:25.823Z,28.69
2018-07-20T17:35:23.598Z,28.52
2018-07-20T17:38:21.643Z,28.41
2018-07-20T17:41:19.514Z,28.34
2018-07-20T17:44:18.465Z,28.33
2018-07-20T17:47:16.286Z,28.27
2018-07-20T17:50:14.062Z,28.21
2018-07-20T17:53:12.034Z,28.14
2018-07-20T17:56:10.009Z,28.03
2018-07-20T17:59:07.985Z,27.88
2018-07-20T18:02:05.914Z,27.78
2018-07-20T18:05:04.014Z,27.68
2018-07-20T18:08:02.036Z,27.55
2018-07-20T18:10:59.934Z,27.41
2018-07-20T18:13:57.693Z,27.29
2018-07-20T18:16:55.755Z,27.17
2018-07-20T18:19:53.409Z,27.04
2018-07-20T18:22:51.413Z,26.96
2018-07-20T18:25:49.323Z,26.87
2018-07-20T18:28:46.312Z,26.76
2018-07-20T18:31:44.183Z,26.60
2018-07-20T18:34:42.230Z,26.52
2018-07-20T18:37:40.265Z,26.43
2018-07-20T18:40:38.377Z,26.29
2018-07-20T18:43:36.370Z,26.09
2018-07-20T18:46:34.266Z,26.01
2018-07-20T18:49:32.278Z,25.83
2018-07-20T18:52:30.210Z,25.61
2018-07-20T18:55:28.187Z,25.56
2018-07-20T18:58:26.146Z,25.43
2018-07-20T19:01:24.233Z,25.34
2018-07-20T19:04:22.283Z,25.31
2018-07-20T19:07:20.266Z,25.29
2018-07-20T19:10:18.342Z,25.13
2018-07-20T19:13:16.328Z,25.04
2018-07-20T19:16:14.574Z,24.89
2018-07-20T19:19:12.812Z,24.81
2018-07-20T19:22:10.890Z,24.69
2018-07-20T19:25:08.906Z,24.37
2018-07-20T19:28:06.890Z,24.16
2018-07-20T19:31:04.666Z,23.96
2018-07-20T19:34:02.628Z,23.79
2018-07-20T19:37:00.606Z,23.62
2018-07-20T19:39:58.558Z,23.52
2018-07-20T19:42:56.412Z,23.52
2018-07-20T19:45:54.245Z,23.45
2018-07-20T19:48:52.347Z,23.22
2018-07-20T19:51:50.260Z,23.13
2018-07-20T19:54:48.170Z,23.04
2018-07-20T19:57:46.001Z,22.97
2018-07-20T20:00:44.027Z,23.07
2018-07-20T20:03:42.075Z,23.10
2018-07-20T20:06:40.281Z,23.07
2018-07-20T20:09:38.358Z,23.14
2018-07-20T20:12:36.430Z,23.03
2018-07-20T20:15:33.758Z,22.76
2018-07-20T20:18:31.692Z,22.70
2018-07-20T20:21:29.938Z,22.56
2018-07-20T20:24:27.920Z,22.41
2018-07-20T20:27:25.814Z,22.32
2018-07-20T20:30:23.925Z,22.41
2018-07-20T20:33:22.847Z,22.53
2018-07-20T20:36:20.574Z,22.57
2018-07-20T20:39:19.595Z,22.59
2018-07-20T20:42:17.471Z,22.55
2018-07-20T20:45:16.474Z,22.22
2018-07-20T20:48:14.448Z,22.33
2018-07-20T20:51:12.523Z,22.63
2018-07-20T20:54:10.320Z,22.78
2018-07-20T20:57:08.319Z,22.85
2018-07-20T21:00:06.361Z,22.91
2018-07-20T21:03:04.344Z,22.88
2018-07-20T21:06:02.304Z,22.81
2018-07-20T21:09:00.283Z,22.79
2018-07-20T21:11:58.208Z,22.71
2018-07-20T21:14:56.447Z,22.65
2018-07-20T21:17:54.335Z,22.67
2018-07-20T21:20:52.323Z,22.61
2018-07-20T21:23:50.296Z,22.49
2018-07-20T21:26:48.310Z,22.36
2018-07-20T21:29:46.588Z,22.30
2018-07-20T21:32:44.519Z,22.27
2018-07-20T21:35:42.730Z,22.23
2018-07-20T21:38:40.607Z,22.15
2018-07-20T21:41:37.952Z,21.96
2018-07-20T21:44:35.944Z,21.65
2018-07-20T21:47:33.940Z,21.46
2018-07-20T21:50:32.202Z,21.20
2018-07-20T21:53:29.975Z,21.06
2018-07-20T21:56:27.837Z,21.12
2018-07-20T21:59:25.914Z,21.21
2018-07-20T22:02:22.931Z,21.25
2018-07-20T22:05:20.844Z,20.77
2018-07-20T22:08:18.756Z,20.45
2018-07-20T22:11:16.382Z,20.36
2018-07-20T22:14:13.962Z,20.23
2018-07-20T22:17:11.862Z,20.23
2018-07-20T22:20:09.837Z,20.15
2018-07-20T22:23:07.455Z,20.00
2018-07-20T22:26:05.381Z,20.08
2018-07-20T22:29:03.507Z,20.17
2018-07-20T22:32:01.617Z,20.24
2018-07-20T22:34:59.463Z,20.29
2018-07-20T22:37:57.670Z,20.17
2018-07-20T22:40:55.454Z,20.07
2018-07-20T22:43:53.302Z,20.14
2018-07-20T22:46:51.199Z,19.88
2018-07-20T22:49:49.252Z,19.78
2018-07-20T22:52:47.014Z,19.69
2018-07-20T22:55:44.938Z,19.61
2018-07-20T22:58:42.762Z,19.64
2018-07-20T23:01:40.618Z,19.80
2018-07-20T23:04:38.695Z,19.89
2018-07-20T23:07:36.566Z,19.96
2018-07-20T23:10:34.765Z,20.06
2018-07-20T23:13:32.861Z,19.98
2018-07-20T23:16:30.619Z,19.83
2018-07-20T23:19:28.491Z,19.68
2018-07-20T23:22:26.256Z,19.75
2018-07-20T23:25:23.974Z,19.83
2018-07-20T23:28:21.913Z,19.85
2018-07-20T23:31:19.849Z,19.84
2018-07-20T23:34:17.622Z,19.83
2018-07-20T23:37:15.721Z,19.71
2018-07-20T23:40:13.117Z,19.51
2018-07-20T23:43:11.059Z,19.51
2018-07-20T23:46:08.769Z,19.35
2018-07-20T23:49:05.911Z,19.47
2018-07-20T23:52:03.818Z,19.58
2018-07-20T23:55:01.655Z,19.72
2018-07-20T23:57:59.694Z,19.78
